Time;durP1;ratioP1;P1;durP2;ratioP2;P2;SDS_P1;SDS_P2;PMS_P1;PMS_P2;Temp;Humidity;BMP_temperature;BMP_pressure;BME280_temperature;BME280_humidity;BME280_pressure;Samples;Min_cycle;Max_cycle;Signal;HPM_P1;HPM_P2
2021/07/23 00:01:34;;;;;;;14.43;9.80;;;21.50;83.10;;;;;;5032120;28;20018;-71
2021/07/23 00:04:20;;;;;;;13.45;9.00;;;21.40;83.30;;;;;;5033909;28;20034;-71
2021/07/23 00:07:06;;;;;;;15.10;10.60;;;21.30;83.70;;;;;;5018332;28;20096;-71
2021/07/23 00:09:52;;;;;;;13.85;8.82;;;21.30;83.80;;;;;;5032418;28;20038;-70
2021/07/23 00:12:37;;;;;;;13.95;9.18;;;21.20;84.20;;;;;;5032702;28;20048;-70
2021/07/23 00:15:23;;;;;;;16.55;9.75;;;21.20;84.20;;;;;;5031115;28;20124;-71
2021/07/23 00:18:09;;;;;;;18.67;9.98;;;21.20;84.40;;;;;;5034024;28;20033;-70
2021/07/23 00:20:55;;;;;;;13.23;9.00;;;21.20;84.50;;;;;;5031553;28;20021;-70
2021/07/23 00:23:41;;;;;;;16.08;10.52;;;21.10;84.80;;;;;;5034319;28;20029;-70
2021/07/23 00:26:26;;;;;;;15.32;9.85;;;21.10;85.10;;;;;;5033644;28;20025;-70
2021/07/23 00:29:12;;;;;;;14.43;9.10;;;21.00;85.20;;;;;;5034408;28;20033;-70
2021/07/23 00:31:58;;;;;;;13.13;9.43;;;21.00;85.20;;;;;;5013911;28;20098;-70
2021/07/23 00:34:44;;;;;;;13.75;9.02;;;21.00;85.50;;;;;;5032628;28;20069;-70
2021/07/23 00:37:30;;;;;;;14.13;10.05;;;20.90;85.80;;;;;;5047646;28;20032;-70
2021/07/23 00:40:15;;;;;;;15.45;10.82;;;20.90;86.20;;;;;;5052355;28;20036;-70
2021/07/23 00:43:01;;;;;;;16.55;11.48;;;20.80;86.40;;;;;;5053786;28;20393;-70
2021/07/23 00:45:47;;;;;;;29.75;21.35;;;20.80;86.70;;;;;;5051698;28;20021;-70
2021/07/23 00:48:33;;;;;;;35.72;29.25;;;20.80;86.90;;;;;;5053009;28;20059;-70
2021/07/23 00:51:19;;;;;;;25.30;18.13;;;20.80;87.00;;;;;;5050148;28;20426;-70
2021/07/23 00:54:06;;;;;;;34.47;24.63;;;20.80;87.50;;;;;;5037646;28;20481;-70
2021/07/23 00:56:51;;;;;;;42.85;33.75;;;20.70;87.60;;;;;;5050708;28;20041;-70
2021/07/23 00:59:38;;;;;;;63.33;45.60;;;20.70;87.60;;;;;;5045348;28;20115;-71
2021/07/23 01:02:24;;;;;;;62.55;46.35;;;20.60;88.00;;;;;;5051017;28;20032;-71
2021/07/23 01:05:11;;;;;;;62.28;45.38;;;20.60;88.10;;;;;;5050290;28;20489;-71
2021/07/23 01:07:56;;;;;;;51.13;37.47;;;20.60;88.50;;;;;;5053004;28;20036;-71
2021/07/23 01:10:42;;;;;;;55.40;40.13;;;20.50;88.30;;;;;;5050772;28;20037;-71
2021/07/23 01:13:28;;;;;;;57.63;34.97;;;20.60;88.70;;;;;;5053088;28;20025;-71
2021/07/23 01:16:15;;;;;;;48.92;31.63;;;20.50;88.80;;;;;;5049913;28;20045;-71
2021/07/23 01:19:01;;;;;;;43.95;29.60;;;20.50;88.80;;;;;;5050622;28;20045;-71
2021/07/23 01:21:52;;;;;;;37.33;26.23;;;20.40;88.90;;;;;;5050705;28;20044;-71
2021/07/23 01:24:38;;;;;;;38.47;26.77;;;20.40;89.10;;;;;;5035878;28;20021;-71
2021/07/23 01:27:29;;;;;;;38.97;27.67;;;20.30;89.40;;;;;;5034447;28;20033;-73
2021/07/23 01:30:15;;;;;;;34.47;23.48;;;20.30;89.80;;;;;;5037773;28;20027;-71
2021/07/23 01:32:58;;;;;;;36.35;22.77;;;20.30;89.80;;;;;;5052853;28;20392;-72
2021/07/23 01:35:43;;;;;;;31.77;22.38;;;20.20;90.00;;;;;;5022477;28;20052;-70
2021/07/23 01:38:28;;;;;;;34.97;23.88;;;20.20;90.20;;;;;;5052486;28;20035;-70
2021/07/23 01:41:12;;;;;;;36.30;21.20;;;20.20;90.30;;;;;;5050799;28;20102;-70
2021/07/23 01:43:56;;;;;;;31.23;19.88;;;20.20;90.40;;;;;;5052807;28;20070;-70
2021/07/23 01:46:40;;;;;;;25.63;19.05;;;20.20;90.50;;;;;;5039266;28;20040;-70
2021/07/23 01:49:24;;;;;;;32.90;20.77;;;20.20;90.50;;;;;;5050889;28;20051;-70
2021/07/23 01:52:08;;;;;;;24.10;17.67;;;20.20;90.70;;;;;;5050381;28;20035;-70
2021/07/23 01:54:52;;;;;;;25.20;17.25;;;20.10;90.70;;;;;;5037262;28;20059;-70
2021/07/23 01:57:37;;;;;;;26.70;17.13;;;20.10;90.90;;;;;;5049598;28;20036;-71
2021/07/23 02:00:22;;;;;;;28.00;18.25;;;20.10;90.90;;;;;;5053612;28;20048;-70
2021/07/23 02:03:05;;;;;;;29.13;16.50;;;20.10;90.90;;;;;;5037321;28;20040;-70
2021/07/23 02:05:49;;;;;;;24.48;16.98;;;20.10;91.00;;;;;;5051119;28;20492;-70
2021/07/23 02:08:33;;;;;;;22.20;15.07;;;20.00;91.10;;;;;;5040216;28;20036;-70
2021/07/23 02:11:17;;;;;;;24.77;15.60;;;20.00;91.10;;;;;;5049798;28;20086;-70
2021/07/23 02:14:06;;;;;;;22.02;14.50;;;20.00;91.10;;;;;;5051850;28;20075;-70
2021/07/23 02:16:50;;;;;;;21.88;14.20;;;20.00;91.30;;;;;;5049352;28;20028;-70
2021/07/23 02:19:34;;;;;;;21.83;13.90;;;20.00;91.40;;;;;;5051890;28;20128;-70
2021/07/23 02:22:18;;;;;;;21.25;14.60;;;20.00;91.40;;;;;;5050675;28;20313;-70
2021/07/23 02:25:04;;;;;;;21.58;13.82;;;20.00;91.50;;;;;;5051882;28;20476;-71
2021/07/23 02:27:48;;;;;;;22.15;13.60;;;20.00;91.60;;;;;;5050188;28;20078;-71
2021/07/23 02:30:32;;;;;;;20.40;13.00;;;19.90;91.60;;;;;;5036286;28;20097;-73
2021/07/23 02:33:16;;;;;;;18.95;12.80;;;20.00;91.70;;;;;;5050646;28;20031;-70
2021/07/23 02:36:00;;;;;;;18.58;12.95;;;20.00;91.80;;;;;;5050246;28;20126;-73
2021/07/23 02:38:45;;;;;;;16.20;12.10;;;20.00;91.80;;;;;;5035794;28;20048;-76
2021/07/23 02:41:29;;;;;;;19.70;12.88;;;20.00;91.80;;;;;;5050006;28;20036;-72
2021/07/23 02:44:13;;;;;;;18.38;12.23;;;20.10;91.80;;;;;;5051867;28;20039;-72
2021/07/23 02:46:57;;;;;;;18.10;12.20;;;20.10;91.80;;;;;;5050352;28;20044;-72
2021/07/23 02:49:41;;;;;;;19.83;12.65;;;20.10;91.80;;;;;;5051404;28;20507;-71
2021/07/23 02:52:25;;;;;;;14.07;10.97;;;20.10;91.90;;;;;;5049749;28;20062;-72
2021/07/23 02:55:09;;;;;;;16.35;12.02;;;20.00;91.80;;;;;;5051560;28;20090;-72
2021/07/23 02:57:53;;;;;;;15.25;11.18;;;20.00;91.90;;;;;;5050531;28;20512;-73
2021/07/23 03:00:37;;;;;;;20.03;13.63;;;19.90;92.00;;;;;;5051189;28;20082;-73
2021/07/23 03:03:21;;;;;;;16.83;10.75;;;19.90;91.90;;;;;;5051498;28;20129;-73
2021/07/23 03:06:05;;;;;;;14.20;11.00;;;19.90;92.30;;;;;;5047530;28;20064;-73
2021/07/23 03:08:49;;;;;;;17.23;11.93;;;19.90;92.20;;;;;;5032042;28;20048;-73
2021/07/23 03:11:34;;;;;;;16.25;10.95;;;19.90;92.20;;;;;;5036597;28;20499;-73
2021/07/23 03:14:18;;;;;;;15.88;11.55;;;19.90;92.20;;;;;;5050138;28;20076;-73
2021/07/23 03:17:02;;;;;;;16.73;11.18;;;19.90;92.30;;;;;;5050127;28;20044;-72
2021/07/23 03:19:46;;;;;;;15.75;11.30;;;19.90;92.40;;;;;;5051094;28;20121;-72
2021/07/23 03:22:31;;;;;;;17.42;11.75;;;19.80;92.40;;;;;;5051398;28;20162;-71
2021/07/23 03:25:15;;;;;;;18.07;11.90;;;19.80;92.50;;;;;;5055384;28;20171;-71
2021/07/23 03:27:59;;;;;;;15.05;10.35;;;19.80;92.60;;;;;;5052745;28;20087;-71
2021/07/23 03:30:43;;;;;;;21.75;10.07;;;19.90;92.70;;;;;;5055178;28;20060;-71
2021/07/23 03:33:27;;;;;;;13.77;10.77;;;19.90;92.80;;;;;;5035143;28;20393;-72
2021/07/23 03:36:13;;;;;;;16.40;11.57;;;19.90;92.80;;;;;;5047498;28;20034;-75
2021/07/23 03:38:59;;;;;;;16.48;11.48;;;20.00;92.80;;;;;;5055088;28;20017;-73
2021/07/23 03:41:46;;;;;;;13.88;11.00;;;19.90;92.80;;;;;;5052849;28;20511;-70
2021/07/23 03:44:32;;;;;;;17.55;10.90;;;19.90;92.90;;;;;;5054427;28;20027;-71
2021/07/23 03:47:18;;;;;;;16.80;10.85;;;20.00;92.90;;;;;;5052055;28;20033;-71
2021/07/23 03:50:04;;;;;;;15.52;10.93;;;20.00;92.90;;;;;;5033224;28;20413;-72
2021/07/23 03:52:50;;;;;;;14.15;9.77;;;20.00;92.90;;;;;;5049476;28;20036;-72
2021/07/23 03:55:35;;;;;;;16.52;10.75;;;20.00;92.90;;;;;;5039926;28;20041;-72
2021/07/23 03:58:23;;;;;;;15.85;11.15;;;20.00;93.00;;;;;;5054456;28;20029;-72
2021/07/23 04:01:09;;;;;;;14.80;9.95;;;20.00;93.00;;;;;;5053558;28;20080;-72
2021/07/23 04:03:54;;;;;;;19.15;11.50;;;20.10;92.90;;;;;;5053752;28;20029;-72
2021/07/23 04:06:40;;;;;;;14.55;9.90;;;20.10;93.00;;;;;;5049689;28;20024;-72
2021/07/23 04:09:27;;;;;;;14.90;10.55;;;20.00;93.10;;;;;;5054801;28;20404;-71
2021/07/23 04:12:13;;;;;;;16.80;11.20;;;20.10;93.20;;;;;;5051377;28;20110;-72
2021/07/23 04:14:59;;;;;;;18.05;11.45;;;20.20;93.20;;;;;;5049928;28;20037;-72
2021/07/23 04:17:45;;;;;;;15.95;10.32;;;20.20;93.20;;;;;;5048292;28;20052;-71
2021/07/23 04:20:30;;;;;;;15.23;10.80;;;20.30;93.20;;;;;;5043849;28;20029;-72
2021/07/23 04:23:16;;;;;;;17.20;11.43;;;20.30;93.20;;;;;;5054163;28;20044;-72
2021/07/23 04:26:03;;;;;;;17.75;12.25;;;20.40;93.20;;;;;;5051263;28;20135;-72
2021/07/23 04:28:49;;;;;;;18.05;11.57;;;20.40;93.10;;;;;;5051880;28;20484;-72
2021/07/23 04:31:34;;;;;;;13.30;10.48;;;20.50;93.00;;;;;;5051170;28;20498;-72
2021/07/23 04:34:20;;;;;;;16.05;11.20;;;20.50;92.90;;;;;;5051880;28;20041;-72
2021/07/23 04:37:06;;;;;;;17.10;12.32;;;20.50;92.90;;;;;;5052291;28;20021;-72
2021/07/23 04:39:52;;;;;;;16.38;11.38;;;20.50;93.00;;;;;;5053451;28;20024;-73
2021/07/23 04:42:38;;;;;;;15.82;11.18;;;20.50;93.10;;;;;;5038529;28;20429;-72
2021/07/23 04:45:23;;;;;;;15.65;11.77;;;20.50;93.10;;;;;;5034096;28;20469;-72
2021/07/23 04:48:09;;;;;;;18.17;11.98;;;20.50;93.20;;;;;;5050836;28;20063;-72
2021/07/23 04:50:55;;;;;;;15.48;11.65;;;20.60;93.30;;;;;;5051028;28;20060;-72
2021/07/23 04:53:41;;;;;;;15.48;10.00;;;20.70;93.30;;;;;;5034158;28;20464;-73
2021/07/23 04:56:28;;;;;;;14.63;11.02;;;20.70;93.30;;;;;;5034274;28;20033;-72
2021/07/23 04:59:13;;;;;;;15.07;11.13;;;20.70;93.30;;;;;;5052979;28;20025;-71
2021/07/23 05:01:59;;;;;;;17.52;12.25;;;20.90;93.30;;;;;;5050147;28;20035;-69
2021/07/23 05:04:45;;;;;;;15.60;11.40;;;20.90;93.20;;;;;;5050954;28;20033;-70
2021/07/23 05:07:31;;;;;;;18.13;12.85;;;20.90;93.00;;;;;;5051382;28;20068;-70
2021/07/23 05:10:17;;;;;;;18.45;12.45;;;20.90;93.20;;;;;;5053231;28;20021;-70
2021/07/23 05:13:06;;;;;;;15.90;11.60;;;20.90;93.00;;;;;;5051360;28;20552;-72
2021/07/23 05:15:53;;;;;;;18.70;12.18;;;21.00;93.00;;;;;;5051258;28;20055;-74
2021/07/23 05:18:40;;;;;;;20.80;12.20;;;21.00;92.90;;;;;;5018616;28;20041;-71
2021/07/23 05:21:25;;;;;;;16.35;11.93;;;21.10;92.80;;;;;;5036991;28;20025;-71
2021/07/23 05:24:12;;;;;;;17.55;12.15;;;21.10;92.80;;;;;;5053071;28;20060;-71
2021/07/23 05:26:59;;;;;;;19.20;12.35;;;21.20;92.60;;;;;;5049737;28;20508;-75
2021/07/23 05:29:43;;;;;;;;;;;21.30;92.80;;;;;;5035264;28;20448;-81
2021/07/23 05:32:27;;;;;;;16.50;11.38;;;21.30;92.70;;;;;;5048665;28;19954;-79
2021/07/23 05:35:11;;;;;;;19.75;12.35;;;21.40;92.60;;;;;;5052910;28;20120;-79
2021/07/23 05:37:55;;;;;;;18.60;12.55;;;21.40;92.50;;;;;;5043172;28;20032;-80
2021/07/23 05:40:39;;;;;;;18.30;12.02;;;21.50;92.50;;;;;;5053877;28;20040;-77
2021/07/23 05:43:24;;;;;;;18.17;11.30;;;21.50;92.60;;;;;;5034644;28;20040;-78
2021/07/23 05:46:08;;;;;;;18.67;11.60;;;21.60;92.70;;;;;;5048559;28;20032;-79
2021/07/23 05:48:53;;;;;;;15.90;11.35;;;21.70;92.60;;;;;;5036191;28;20114;-78
2021/07/23 05:51:37;;;;;;;17.20;12.02;;;21.70;92.30;;;;;;5035440;28;20036;-79
2021/07/23 05:54:21;;;;;;;17.23;11.77;;;21.80;92.10;;;;;;5035132;28;20040;-78
2021/07/23 05:57:05;;;;;;;19.17;11.18;;;21.90;92.10;;;;;;5034191;28;20052;-79
2021/07/23 05:59:49;;;;;;;16.13;10.65;;;22.00;92.20;;;;;;5046792;28;20095;-78
2021/07/23 06:02:33;;;;;;;16.38;11.40;;;22.10;92.30;;;;;;5050924;28;20058;-80
2021/07/23 06:05:17;;;;;;;18.05;12.18;;;22.10;92.40;;;;;;5049594;28;20485;-82
2021/07/23 06:08:02;;;;;;;17.10;11.07;;;22.20;92.00;;;;;;5038216;28;20047;-81
2021/07/23 06:10:46;;;;;;;16.00;11.82;;;22.20;91.90;;;;;;5052430;28;20044;-81
2021/07/23 06:13:30;;;;;;;17.07;12.20;;;22.30;91.90;;;;;;5032611;28;20385;-80
2021/07/23 06:16:14;;;;;;;19.27;11.85;;;22.40;91.60;;;;;;5036055;28;20090;-80
2021/07/23 06:18:59;;;;;;;20.35;12.32;;;22.40;91.70;;;;;;5052731;28;20083;-81
2021/07/23 06:21:43;;;;;;;;;;;22.40;91.50;;;;;;5047061;28;20043;-80
2021/07/23 06:24:27;;;;;;;17.52;12.27;;;22.40;91.50;;;;;;5052508;28;20284;-81
2021/07/23 06:27:11;;;;;;;18.95;12.85;;;22.40;90.80;;;;;;5047369;28;20604;-80
2021/07/23 06:29:56;;;;;;;23.00;12.30;;;22.40;90.90;;;;;;5049545;28;20075;-82
2021/07/23 06:32:40;;;;;;;18.35;11.40;;;22.40;90.70;;;;;;5045116;28;20841;-80
2021/07/23 06:35:24;;;;;;;17.40;12.00;;;22.40;90.40;;;;;;5046866;28;20047;-81
2021/07/23 06:38:08;;;;;;;20.10;12.23;;;22.50;90.30;;;;;;5018286;28;20035;-81
2021/07/23 06:40:53;;;;;;;16.33;11.55;;;22.50;90.20;;;;;;5032230;28;20504;-81
2021/07/23 06:43:37;;;;;;;19.40;12.00;;;22.60;90.30;;;;;;5033253;28;20049;-81
2021/07/23 06:46:21;;;;;;;15.60;12.00;;;22.60;90.00;;;;;;5050272;28;20436;-81
2021/07/23 06:49:05;;;;;;;14.65;10.77;;;22.70;89.90;;;;;;5051550;28;20914;-78
2021/07/23 06:51:49;;;;;;;19.67;11.83;;;22.70;89.60;;;;;;5050066;28;20044;-79
2021/07/23 06:54:34;;;;;;;20.85;12.10;;;22.70;90.10;;;;;;5051816;28;20052;-88
2021/07/23 06:57:19;;;;;;;13.90;10.52;;;22.80;89.30;;;;;;5035549;28;20504;-88
2021/07/23 07:00:03;;;;;;;18.40;11.00;;;22.90;90.20;;;;;;5037619;28;20071;-86
2021/07/23 07:02:47;;;;;;;16.52;10.52;;;23.00;88.90;;;;;;5055487;28;20076;-88
2021/07/23 07:05:31;;;;;;;12.35;9.05;;;23.00;88.30;;;;;;5051247;28;20113;-78
2021/07/23 07:08:15;;;;;;;13.10;9.23;;;23.10;89.10;;;;;;5053315;28;20605;-85
2021/07/23 07:11:00;;;;;;;13.07;9.15;;;23.20;87.90;;;;;;5058940;28;20332;-87
2021/07/23 07:13:44;;;;;;;14.48;9.85;;;23.30;87.00;;;;;;5068483;28;20063;-87
2021/07/23 07:16:29;;;;;;;14.15;9.98;;;23.40;86.80;;;;;;5062201;28;20044;-87
2021/07/23 07:19:13;;;;;;;14.82;10.73;;;23.40;86.60;;;;;;5056695;28;20092;-88
2021/07/23 07:21:57;;;;;;;21.77;8.73;;;23.50;86.20;;;;;;5052422;28;20316;-87
2021/07/23 07:24:41;;;;;;;17.52;9.23;;;23.70;86.30;;;;;;5046229;28;20112;-86
2021/07/23 07:27:25;;;;;;;14.70;9.30;;;23.70;84.50;;;;;;5046204;28;20083;-87
2021/07/23 07:30:09;;;;;;;10.35;8.40;;;23.70;84.80;;;;;;5044973;28;20579;-86
2021/07/23 07:32:53;;;;;;;11.80;7.22;;;23.90;84.10;;;;;;5059193;28;20095;-86
2021/07/23 07:35:43;;;;;;;11.98;7.75;;;23.90;83.70;;;;;;5057383;28;20040;-87
2021/07/23 07:38:29;;;;;;;12.48;7.72;;;24.00;84.30;;;;;;5047685;28;20580;-88
2021/07/23 07:41:16;;;;;;;10.20;7.65;;;24.00;83.80;;;;;;5065394;28;20496;-85
2021/07/23 07:44:02;;;;;;;10.38;6.90;;;24.10;81.20;;;;;;5069529;28;20400;-87
2021/07/23 07:46:48;;;;;;;12.18;7.55;;;24.20;82.30;;;;;;5046708;28;20032;-86
2021/07/23 07:49:34;;;;;;;13.07;7.90;;;24.30;82.30;;;;;;5048977;28;20053;-88
2021/07/23 07:52:20;;;;;;;12.25;6.95;;;24.30;82.80;;;;;;5057941;28;20021;-86
2021/07/23 07:55:06;;;;;;;12.05;7.82;;;24.50;80.50;;;;;;5067897;28;20032;-85
2021/07/23 07:57:52;;;;;;;9.18;6.95;;;24.50;81.70;;;;;;5036116;28;20101;-88
2021/07/23 08:00:38;;;;;;;10.73;6.90;;;24.60;80.80;;;;;;5041896;28;20065;-86
2021/07/23 08:03:24;;;;;;;10.45;6.53;;;24.70;79.50;;;;;;5056941;28;20108;-86
2021/07/23 08:06:22;;;;;;;11.63;6.15;;;24.70;79.60;;;;;;5063725;28;20067;-86
2021/07/23 08:09:10;;;;;;;8.55;6.25;;;24.70;80.30;;;;;;5054651;28;20029;-85
2021/07/23 08:11:56;;;;;;;10.63;6.00;;;24.80;80.50;;;;;;5051359;28;20044;-87
2021/07/23 08:14:42;;;;;;;8.23;5.95;;;24.90;80.20;;;;;;5052508;28;20044;-88
2021/07/23 08:17:28;;;;;;;10.68;6.65;;;25.00;80.10;;;;;;5055728;28;20029;-86
2021/07/23 08:20:15;;;;;;;9.43;7.20;;;25.10;79.90;;;;;;5043564;28;20492;-83
2021/07/23 08:23:00;;;;;;;9.82;6.68;;;25.20;79.50;;;;;;5034063;28;20124;-84
2021/07/23 08:25:47;;;;;;;13.07;6.68;;;25.30;78.90;;;;;;5036154;28;20077;-84
2021/07/23 08:28:33;;;;;;;7.53;5.72;;;25.40;78.60;;;;;;5020696;28;20033;-77
2021/07/23 08:31:20;;;;;;;7.32;5.95;;;25.50;77.50;;;;;;5041299;28;20485;-76
2021/07/23 08:34:05;;;;;;;9.45;6.18;;;25.60;76.50;;;;;;5054295;28;20036;-78
2021/07/23 08:36:51;;;;;;;9.80;6.60;;;25.60;77.10;;;;;;5031219;28;20048;-78
2021/07/23 08:39:37;;;;;;;8.80;6.18;;;25.70;77.20;;;;;;5036090;28;20132;-78
2021/07/23 08:42:31;;;;;;;9.02;6.32;;;25.80;74.90;;;;;;5035154;28;20144;-78
2021/07/23 08:45:17;;;;;;;6.03;5.18;;;25.70;71.20;;;;;;5033830;28;20060;-77
2021/07/23 08:48:04;;;;;;;8.13;6.05;;;25.50;72.20;;;;;;5051455;28;20473;-77
2021/07/23 08:50:50;;;;;;;7.60;5.70;;;25.50;73.00;;;;;;5038269;28;20037;-78
2021/07/23 08:53:36;;;;;;;7.07;5.57;;;25.50;73.50;;;;;;5035053;28;20139;-78
2021/07/23 08:56:22;;;;;;;9.55;6.30;;;25.50;73.00;;;;;;5037352;28;20040;-78
2021/07/23 08:59:07;;;;;;;8.30;5.90;;;25.50;74.10;;;;;;5039868;28;20029;-79
2021/07/23 09:02:00;;;;;;;9.93;6.10;;;25.60;74.00;;;;;;5049709;28;20664;-79
2021/07/23 09:04:46;;;;;;;9.18;6.05;;;25.70;73.90;;;;;;5046906;28;20082;-78
2021/07/23 09:07:32;;;;;;;8.02;6.00;;;25.80;73.70;;;;;;5047754;28;20040;-79
2021/07/23 09:10:27;;;;;;;9.45;5.80;;;25.90;72.00;;;;;;5034480;28;20100;-80
2021/07/23 09:13:23;;;;;;;8.93;6.43;;;25.90;72.10;;;;;;5043541;28;20041;-78
2021/07/23 09:16:25;;;;;;;8.80;6.57;;;25.80;70.70;;;;;;5050501;28;20048;-77
2021/07/23 09:19:11;;;;;;;7.47;6.15;;;25.90;71.00;;;;;;5048235;28;20120;-76
2021/07/23 09:21:58;;;;;;;8.98;6.70;;;25.80;70.10;;;;;;5049428;28;20112;-76
2021/07/23 09:24:53;;;;;;;7.20;6.22;;;25.70;70.30;;;;;;5058364;28;20020;-80
2021/07/23 09:27:39;;;;;;;8.57;6.50;;;25.70;70.70;;;;;;5046736;28;20017;-75
2021/07/23 09:30:07;;;;;;;7.00;5.82;;;25.60;69.90;;;;;;5046426;28;20162;-77
2021/07/23 09:32:57;;;;;;;8.73;5.93;;;25.70;71.10;;;;;;5049510;28;20393;-77
2021/07/23 09:35:59;;;;;;;10.48;7.10;;;25.70;70.40;;;;;;5048297;28;20116;-78
2021/07/23 09:38:44;;;;;;;7.20;6.10;;;25.70;68.60;;;;;;5041603;28;20400;-78
2021/07/23 09:41:29;;;;;;;11.35;6.43;;;25.70;70.50;;;;;;5024422;28;20078;-80
2021/07/23 09:44:15;;;;;;;;;;;25.80;70.70;;;;;;5048123;28;20060;-79
2021/07/23 09:46:59;;;;;;;9.10;6.75;;;25.80;70.50;;;;;;5049398;28;19955;-78
2021/07/23 09:49:45;;;;;;;9.68;6.05;;;25.70;70.40;;;;;;5050687;28;20486;-78
2021/07/23 09:52:32;;;;;;;8.45;6.30;;;25.80;71.00;;;;;;5026040;28;20120;-77
2021/07/23 09:55:16;;;;;;;11.10;6.75;;;25.80;71.60;;;;;;5044980;28;20401;-79
2021/07/23 09:58:04;;;;;;;9.63;7.03;;;25.90;69.80;;;;;;5043313;28;20036;-78
2021/07/23 10:00:56;;;;;;;7.40;6.32;;;25.90;68.20;;;;;;5047436;28;20052;-78
2021/07/23 10:03:44;;;;;;;9.68;6.95;;;25.90;70.30;;;;;;5042535;28;20044;-76
2021/07/23 10:06:34;;;;;;;9.10;6.78;;;26.00;68.10;;;;;;5036773;28;20039;-77
2021/07/23 10:09:23;;;;;;;10.95;7.03;;;26.00;69.30;;;;;;5063635;28;20039;-78
2021/07/23 10:12:09;;;;;;;11.20;7.55;;;26.10;68.10;;;;;;5061652;28;20027;-76
2021/07/23 10:14:54;;;;;;;8.85;6.80;;;26.10;67.50;;;;;;5057104;28;20031;-77
2021/07/23 10:17:39;;;;;;;10.40;7.20;;;26.20;68.50;;;;;;5054630;28;20044;-77
2021/07/23 10:20:23;;;;;;;11.65;7.03;;;26.20;67.90;;;;;;5044611;28;20498;-78
2021/07/23 10:23:08;;;;;;;9.68;7.28;;;26.30;67.70;;;;;;5036648;28;20040;-77
2021/07/23 10:25:53;;;;;;;;;;;26.30;65.90;;;;;;5047189;28;20040;-78
2021/07/23 10:28:41;;;;;;;;;;;26.20;66.10;;;;;;5045502;28;20285;-77
2021/07/23 10:31:27;;;;;;;9.57;6.70;;;26.20;67.00;;;;;;5046119;28;20323;-77
2021/07/23 10:34:29;;;;;;;9.68;7.32;;;26.20;68.00;;;;;;5042987;28;20434;-77
2021/07/23 10:37:33;;;;;;;10.35;7.28;;;26.30;67.80;;;;;;5044408;28;20097;-77
2021/07/23 10:40:19;;;;;;;8.55;6.65;;;26.40;68.30;;;;;;5042151;28;20388;-78
2021/07/23 10:43:44;;;;;;;11.02;7.85;;;26.40;67.90;;;;;;5047050;28;20414;-77
2021/07/23 10:46:55;;;;;;;9.40;6.65;;;26.60;67.90;;;;;;5038497;28;20040;-77
2021/07/23 10:49:39;;;;;;;11.35;6.90;;;26.60;66.50;;;;;;5030842;28;20146;-78
2021/07/23 10:52:28;;;;;;;11.90;8.00;;;26.60;65.80;;;;;;5048861;28;20267;-77
2021/07/23 10:55:21;;;;;;;11.43;6.80;;;26.50;65.70;;;;;;5049648;28;20047;-78
2021/07/23 10:58:05;;;;;;;8.70;6.88;;;26.50;66.80;;;;;;5050161;28;20040;-78
2021/07/23 11:00:55;;;;;;;9.07;7.18;;;26.40;66.90;;;;;;5049163;28;20086;-78
2021/07/23 11:03:42;;;;;;;9.63;7.45;;;26.40;66.50;;;;;;5044029;28;20154;-77
2021/07/23 11:06:28;;;;;;;8.57;7.20;;;26.50;66.70;;;;;;5049833;28;20032;-77
2021/07/23 11:09:14;;;;;;;8.18;6.68;;;26.50;65.40;;;;;;5051193;28;20124;-78
2021/07/23 11:12:40;;;;;;;12.20;7.47;;;26.60;66.20;;;;;;5049322;28;20039;-77
2021/07/23 11:15:25;;;;;;;9.93;6.85;;;26.70;67.40;;;;;;5047619;28;20081;-76
2021/07/23 11:18:14;;;;;;;9.68;7.43;;;26.90;66.40;;;;;;5050681;28;20029;-77
2021/07/23 11:20:58;;;;;;;9.80;6.88;;;27.00;65.60;;;;;;5049521;28;20448;-77
2021/07/23 11:23:43;;;;;;;10.25;7.53;;;27.00;66.20;;;;;;5036394;28;20063;-77
2021/07/23 11:26:27;;;;;;;11.40;7.20;;;27.00;65.60;;;;;;5049294;28;20106;-78
2021/07/23 11:29:11;;;;;;;10.90;7.55;;;27.10;65.70;;;;;;5040903;28;20027;-78
2021/07/23 11:32:09;;;;;;;10.63;7.38;;;27.10;66.00;;;;;;5049606;28;20047;-77
2021/07/23 11:35:10;;;;;;;10.65;7.30;;;27.20;65.50;;;;;;5048750;28;20048;-77
2021/07/23 11:37:58;;;;;;;9.90;6.78;;;27.20;66.50;;;;;;5043137;28;20439;-77
2021/07/23 11:40:44;;;;;;;9.73;6.05;;;27.30;66.00;;;;;;5065287;28;20025;-79
2021/07/23 11:43:29;;;;;;;10.30;6.60;;;27.40;64.60;;;;;;5038421;28;20489;-82
2021/07/23 11:46:16;;;;;;;10.00;7.03;;;27.50;64.80;;;;;;5051308;28;20496;-80
2021/07/23 11:49:02;;;;;;;10.15;7.15;;;27.60;63.50;;;;;;5049367;28;20041;-83
2021/07/23 11:51:48;;;;;;;11.30;7.15;;;27.70;62.90;;;;;;5047282;28;20044;-78
2021/07/23 11:54:34;;;;;;;8.60;6.35;;;27.60;62.50;;;;;;5044376;28;20037;-77
2021/07/23 11:57:20;;;;;;;8.80;6.22;;;27.60;63.70;;;;;;5028416;28;20032;-79
2021/07/23 12:00:29;;;;;;;12.48;6.50;;;27.60;63.20;;;;;;5052760;28;20036;-83
2021/07/23 12:03:20;;;;;;;8.68;6.55;;;27.60;62.20;;;;;;5034145;28;20408;-80
2021/07/23 12:06:10;;;;;;;8.57;6.65;;;27.70;62.50;;;;;;5046414;28;20068;-79
2021/07/23 12:08:58;;;;;;;9.15;6.25;;;27.70;63.30;;;;;;5052429;28;20032;-79
2021/07/23 12:11:44;;;;;;;10.27;6.40;;;27.70;61.90;;;;;;5043686;28;20190;-77
2021/07/23 12:14:29;;;;;;;7.57;5.88;;;27.70;61.70;;;;;;5050733;28;20070;-77
2021/07/23 12:17:15;;;;;;;8.50;6.88;;;27.70;61.60;;;;;;5051289;28;20037;-78
2021/07/23 12:20:05;;;;;;;9.00;6.40;;;27.70;62.80;;;;;;5039361;28;20146;-78
2021/07/23 12:23:10;;;;;;;7.63;6.32;;;27.70;61.50;;;;;;5041276;28;20397;-78
2021/07/23 12:25:56;;;;;;;8.95;6.57;;;27.80;62.00;;;;;;5054103;28;20033;-79
2021/07/23 12:28:56;;;;;;;7.72;6.32;;;27.80;62.50;;;;;;5045717;28;20124;-85
2021/07/23 12:31:42;;;;;;;9.20;7.13;;;27.90;62.30;;;;;;5045693;28;20083;-82
2021/07/23 12:34:28;;;;;;;8.02;6.28;;;27.90;62.00;;;;;;5054604;28;20485;-83
2021/07/23 12:37:16;;;;;;;40.78;23.33;;;27.90;62.80;;;;;;5050884;28;20026;-84
2021/07/23 12:40:05;;;;;;;22.92;13.55;;;28.00;61.30;;;;;;5054791;28;20025;-83
2021/07/23 12:43:10;;;;;;;20.15;11.18;;;28.10;61.20;;;;;;5053032;28;20024;-77
2021/07/23 12:45:57;;;;;;;7.97;7.17;;;28.20;60.40;;;;;;5037360;28;20025;-75
2021/07/23 12:48:42;;;;;;;11.32;7.78;;;28.30;58.40;;;;;;5019250;28;20290;-72
2021/07/23 12:51:28;;;;;;;9.88;8.02;;;28.40;59.80;;;;;;5037455;28;20056;-72
2021/07/23 12:54:14;;;;;;;12.52;9.00;;;28.50;59.20;;;;;;5043331;28;20843;-72
2021/07/23 12:57:11;;;;;;;10.38;8.05;;;28.50;59.40;;;;;;5048857;28;20037;-72
2021/07/23 13:00:16;;;;;;;10.60;7.03;;;28.50;59.50;;;;;;5050866;28;20475;-72
2021/07/23 13:03:02;;;;;;;;;;;28.40;59.30;;;;;;5048837;28;20033;-71
2021/07/23 13:05:48;;;;;;;7.85;6.53;;;28.30;59.20;;;;;;5047456;28;19938;-71
2021/07/23 13:08:35;;;;;;;10.27;7.05;;;28.40;58.10;;;;;;5048000;28;20037;-70
2021/07/23 13:11:21;;;;;;;9.25;6.43;;;28.40;58.40;;;;;;5046768;28;20025;-70
2021/07/23 13:14:07;;;;;;;8.23;6.38;;;28.40;58.80;;;;;;5044647;28;20036;-70
2021/07/23 13:16:52;;;;;;;8.55;5.90;;;28.50;57.60;;;;;;5049725;28;20429;-70
2021/07/23 13:19:38;;;;;;;7.90;6.32;;;28.60;57.20;;;;;;5034994;28;20061;-70
2021/07/23 13:22:24;;;;;;;7.25;6.10;;;28.60;57.60;;;;;;5041985;28;20374;-70
2021/07/23 13:25:10;;;;;;;8.73;6.53;;;28.50;57.60;;;;;;5042518;28;20476;-70
2021/07/23 13:27:56;;;;;;;7.70;6.30;;;28.40;58.10;;;;;;5049494;28;20035;-70
2021/07/23 13:30:22;;;;;;;9.77;6.50;;;28.40;58.50;;;;;;5047820;28;20025;-70
2021/07/23 13:33:06;;;;;;;8.65;6.18;;;28.30;58.40;;;;;;5048677;28;20040;-71
2021/07/23 13:35:59;;;;;;;9.80;6.40;;;28.30;58.40;;;;;;5047129;28;20576;-71
2021/07/23 13:38:48;;;;;;;8.20;5.40;;;28.40;58.10;;;;;;5047713;28;20512;-71
2021/07/23 13:41:38;;;;;;;6.43;5.53;;;28.50;57.30;;;;;;5046173;28;20028;-70
2021/07/23 13:44:24;;;;;;;8.88;6.28;;;28.50;56.90;;;;;;5049621;28;20120;-70
2021/07/23 13:47:08;;;;;;;9.07;7.22;;;28.50;56.70;;;;;;5049920;28;20035;-70
2021/07/23 13:49:53;;;;;;;8.32;5.68;;;28.60;57.20;;;;;;5047754;28;20079;-71
2021/07/23 13:52:41;;;;;;;8.73;6.00;;;28.70;56.20;;;;;;5047502;28;20086;-70
2021/07/23 13:55:25;;;;;;;11.90;5.50;;;28.70;56.10;;;;;;5050193;28;20432;-70
2021/07/23 13:58:09;;;;;;;;;;;28.60;56.80;;;;;;5045607;28;20032;-70
2021/07/23 14:00:54;;;;;;;7.97;5.85;;;28.60;55.60;;;;;;5043954;28;19916;-70
2021/07/23 14:03:38;;;;;;;7.85;5.55;;;28.30;56.60;;;;;;5043413;28;20071;-71
2021/07/23 14:06:23;;;;;;;8.38;6.25;;;28.30;57.70;;;;;;5041375;28;20381;-71
2021/07/23 14:09:06;;;;;;;8.13;5.78;;;28.20;57.80;;;;;;5049116;28;20039;-71
2021/07/23 14:11:51;;;;;;;7.10;5.78;;;28.30;58.00;;;;;;5048196;28;20519;-71
2021/07/23 14:14:35;;;;;;;7.38;5.20;;;28.50;57.40;;;;;;5039091;28;20067;-71
2021/07/23 14:17:19;;;;;;;10.30;5.80;;;28.50;57.20;;;;;;5048112;28;20051;-71